createdAt,value
2019-02-28T00:00:55.736Z,51.07
2019-02-28T00:03:26.138Z,48.00
2019-02-28T00:05:54.238Z,50.53
2019-02-28T00:08:22.609Z,38.50
2019-02-28T00:10:50.995Z,46.37
2019-02-28T00:13:21.698Z,43.17
2019-02-28T00:15:49.650Z,48.13
2019-02-28T00:18:18.036Z,41.90
2019-02-28T00:20:46.434Z,49.63
2019-02-28T00:23:14.825Z,52.53
2019-02-28T00:25:43.210Z,50.17
2019-02-28T00:28:11.608Z,44.40
2019-02-28T00:30:40.749Z,46.97
2019-02-28T00:33:09.951Z,43.53
2019-02-28T00:35:38.339Z,47.57
2019-02-28T00:38:06.717Z,52.73
2019-02-28T00:40:35.104Z,51.03
2019-02-28T00:43:03.555Z,48.63
2019-02-28T00:45:36.301Z,49.97
2019-02-28T00:48:02.047Z,53.80
2019-02-28T00:50:30.448Z,52.07
2019-02-28T00:52:58.828Z,50.77
2019-02-28T00:55:27.204Z,52.53
2019-02-28T00:57:56.030Z,56.67
2019-02-28T01:00:24.522Z,48.70
2019-02-28T01:02:53.691Z,53.97
2019-02-28T01:05:22.263Z,51.07
2019-02-28T01:07:50.723Z,55.13
2019-02-28T01:10:19.171Z,54.17
2019-02-28T01:12:53.122Z,58.63
2019-02-28T01:15:18.132Z,60.27
2019-02-28T01:17:46.511Z,54.73
2019-02-28T01:20:16.411Z,58.40
2019-02-28T01:22:45.007Z,60.27
2019-02-28T01:25:19.450Z,53.47
2019-02-28T01:27:47.896Z,63.63
2019-02-28T01:30:16.859Z,55.73
2019-02-28T01:32:49.736Z,63.53
2019-02-28T01:35:15.363Z,61.57
2019-02-28T01:37:43.757Z,62.30
2019-02-28T01:40:14.389Z,53.20
2019-02-28T01:42:42.780Z,58.80
2019-02-28T01:45:12.504Z,57.27
2019-02-28T01:47:41.120Z,58.70
2019-02-28T01:50:11.055Z,59.47
2019-02-28T01:52:44.457Z,52.13
2019-02-28T01:55:11.217Z,56.90
2019-02-28T01:57:44.054Z,61.53
2019-02-28T02:00:15.007Z,58.33
2019-02-28T02:02:43.637Z,57.20
2019-02-28T02:05:12.080Z,57.60
2019-02-28T02:07:40.535Z,56.87
2019-02-28T02:10:13.703Z,60.17
2019-02-28T02:12:42.170Z,66.87
2019-02-28T02:15:11.795Z,61.67
2019-02-28T02:17:40.172Z,58.33
2019-02-28T02:20:11.208Z,69.93
2019-02-28T02:22:40.713Z,65.40
2019-02-28T02:25:10.345Z,58.63
2019-02-28T02:27:38.796Z,65.03
2019-02-28T02:30:16.322Z,60.73
2019-02-28T02:32:44.939Z,61.50
2019-02-28T02:35:13.372Z,62.87
2019-02-28T02:37:41.770Z,66.97
2019-02-28T02:40:12.902Z,68.47
2019-02-28T02:42:47.588Z,64.87
2019-02-28T02:45:13.504Z,74.47
2019-02-28T02:47:41.891Z,67.40
2019-02-28T02:50:12.431Z,65.63
2019-02-28T02:52:40.812Z,63.40
2019-02-28T02:55:09.348Z,67.83
2019-02-28T02:57:37.731Z,64.80
2019-02-28T03:00:13.713Z,54.83
2019-02-28T03:02:41.978Z,70.20
2019-02-28T03:05:10.496Z,66.07
2019-02-28T03:07:38.891Z,62.83
2019-02-28T03:10:10.013Z,68.73
2019-02-28T03:12:38.643Z,70.50
2019-02-28T03:15:13.024Z,64.33
2019-02-28T03:17:46.453Z,71.93
2019-02-28T03:20:13.372Z,61.60
2019-02-28T03:22:41.758Z,66.80
2019-02-28T03:25:15.337Z,71.50
2019-02-28T03:27:43.721Z,60.33
2019-02-28T03:30:26.379Z,68.30
2019-02-28T03:32:46.940Z,60.77
2019-02-28T03:35:15.339Z,72.40
2019-02-28T03:37:43.792Z,74.77
2019-02-28T03:40:13.305Z,76.83
2019-02-28T03:42:41.695Z,68.93
2019-02-28T03:45:17.162Z,76.53
2019-02-28T03:47:45.572Z,73.30
2019-02-28T03:50:14.084Z,82.80
2019-02-28T03:52:44.321Z,78.97
2019-02-28T03:55:16.165Z,80.80
2019-02-28T03:57:44.553Z,82.33
2019-02-28T04:00:16.063Z,75.13
2019-02-28T04:02:44.578Z,72.67
2019-02-28T04:05:12.964Z,65.73
2019-02-28T04:07:41.355Z,84.77
2019-02-28T04:10:11.894Z,71.70
2019-02-28T04:12:45.028Z,86.17
2019-02-28T04:15:17.685Z,76.80
2019-02-28T04:17:46.062Z,74.97
2019-02-28T04:20:14.442Z,75.30
2019-02-28T04:22:42.842Z,80.17
2019-02-28T04:25:11.653Z,80.73
2019-02-28T04:27:41.572Z,83.57
2019-02-28T04:30:14.473Z,80.53
2019-02-28T04:32:43.173Z,85.67
2019-02-28T04:35:12.189Z,79.80
2019-02-28T04:37:44.974Z,79.30
2019-02-28T04:40:12.127Z,66.20
2019-02-28T04:42:40.503Z,77.07
2019-02-28T04:45:14.877Z,76.90
2019-02-28T04:47:43.251Z,82.83
2019-02-28T04:50:13.248Z,83.17
2019-02-28T04:52:46.835Z,76.23
2019-02-28T04:55:12.095Z,85.73
2019-02-28T04:57:40.473Z,79.87
2019-02-28T05:00:14.687Z,77.70
2019-02-28T05:02:43.075Z,78.63
2019-02-28T05:05:12.644Z,79.87
2019-02-28T05:07:41.920Z,74.37
2019-02-28T05:10:11.244Z,79.57
2019-02-28T05:12:40.851Z,82.57
2019-02-28T05:15:11.627Z,75.93
2019-02-28T05:17:40.005Z,77.50
2019-02-28T05:20:11.026Z,74.43
2019-02-28T05:22:40.368Z,74.03
2019-02-28T05:25:17.424Z,58.97
2019-02-28T05:27:42.225Z,74.97
2019-02-28T05:30:18.027Z,78.70
2019-02-28T05:32:44.923Z,76.60
2019-02-28T05:35:13.300Z,82.07
2019-02-28T05:37:46.931Z,82.53
2019-02-28T05:40:13.632Z,81.40
2019-02-28T05:42:42.050Z,78.47
2019-02-28T05:45:14.198Z,81.17
2019-02-28T05:47:46.427Z,74.30
2019-02-28T05:50:15.483Z,77.87
2019-02-28T05:52:42.324Z,77.90
2019-02-28T05:55:10.941Z,71.50
2019-02-28T05:57:43.346Z,71.67
2019-02-28T06:00:15.818Z,81.53
2019-02-28T06:02:44.280Z,72.07
2019-02-28T06:05:12.823Z,73.20
2019-02-28T06:07:41.596Z,79.73
2019-02-28T06:10:14.279Z,75.07
2019-02-28T06:12:43.663Z,74.10
2019-02-28T06:15:15.041Z,74.90
2019-02-28T06:17:43.517Z,83.57
2019-02-28T06:20:16.318Z,74.23
2019-02-28T06:22:42.841Z,78.67
2019-02-28T06:25:12.756Z,73.17
2019-02-28T06:27:42.315Z,71.30
2019-02-28T06:30:18.107Z,70.07
2019-02-28T06:32:46.503Z,82.40
2019-02-28T06:35:17.659Z,71.40
2019-02-28T06:37:45.037Z,74.33
2019-02-28T06:40:15.377Z,68.80
2019-02-28T06:42:46.677Z,78.43
2019-02-28T06:45:18.366Z,65.23
2019-02-28T06:47:49.655Z,75.27
2019-02-28T06:50:17.024Z,80.13
2019-02-28T06:52:45.423Z,82.00
2019-02-28T06:55:22.009Z,81.00
2019-02-28T06:57:50.400Z,71.33
2019-02-28T07:00:18.779Z,72.17
2019-02-28T07:02:47.165Z,84.33
2019-02-28T07:05:15.628Z,76.70
2019-02-28T07:07:45.840Z,75.43
2019-02-28T07:10:15.855Z,73.50
2019-02-28T07:12:44.263Z,80.73
2019-02-28T07:15:13.651Z,80.73
2019-02-28T07:17:42.590Z,73.47
2019-02-28T07:20:15.003Z,69.80
2019-02-28T07:22:43.391Z,76.43
2019-02-28T07:25:12.621Z,71.07
2019-02-28T07:27:42.219Z,65.43
2019-02-28T07:30:18.729Z,70.30
2019-02-28T07:32:45.563Z,71.90
2019-02-28T07:35:13.964Z,64.13
2019-02-28T07:37:42.352Z,68.30
2019-02-28T07:40:16.123Z,70.13
2019-02-28T07:42:43.182Z,68.73
2019-02-28T07:45:13.305Z,56.50
2019-02-28T07:47:41.684Z,71.27
2019-02-28T07:50:12.119Z,64.17
2019-02-28T07:52:40.516Z,59.60
2019-02-28T07:55:17.877Z,62.90
2019-02-28T07:57:50.938Z,64.23
2019-02-28T08:00:22.294Z,59.50
2019-02-28T08:02:50.763Z,55.20
2019-02-28T08:05:19.380Z,52.37
2019-02-28T08:07:51.946Z,54.33
2019-02-28T08:10:20.883Z,53.63
2019-02-28T08:12:49.273Z,59.17
2019-02-28T08:15:23.348Z,59.07
2019-02-28T08:17:51.780Z,60.80
2019-02-28T08:20:20.732Z,49.27
2019-02-28T08:22:49.372Z,64.20
2019-02-28T08:25:17.763Z,60.30
2019-02-28T08:27:46.151Z,53.50
2019-02-28T08:30:20.673Z,60.03
2019-02-28T08:32:49.257Z,54.47
2019-02-28T08:35:17.644Z,60.80
2019-02-28T08:37:46.049Z,55.73
2019-02-28T08:40:19.678Z,59.00
2019-02-28T08:42:49.898Z,62.07
2019-02-28T08:45:18.183Z,63.53
2019-02-28T08:47:46.563Z,56.70
2019-02-28T08:50:23.451Z,60.10
2019-02-28T08:52:52.934Z,66.60
2019-02-28T08:55:28.361Z,60.67
2019-02-28T08:57:55.639Z,57.53
2019-02-28T09:00:22.896Z,55.27
2019-02-28T09:02:52.906Z,63.33
2019-02-28T09:05:25.462Z,70.53
2019-02-28T09:07:52.028Z,64.80
2019-02-28T09:10:25.513Z,60.60
2019-02-28T09:12:53.899Z,57.90
2019-02-28T09:15:22.452Z,57.80
2019-02-28T09:17:50.915Z,57.57
2019-02-28T09:20:19.368Z,63.17
2019-02-28T09:22:47.754Z,56.97
2019-02-28T09:25:22.029Z,57.80
2019-02-28T09:27:48.961Z,66.23
2019-02-28T09:30:29.720Z,62.33
2019-02-28T09:32:59.095Z,52.67
2019-02-28T09:35:27.487Z,62.00
2019-02-28T09:37:55.872Z,55.83
2019-02-28T09:40:43.603Z,57.47
2019-02-28T09:43:11.988Z,67.90
2019-02-28T09:45:41.189Z,59.40
2019-02-28T09:48:09.659Z,58.03
2019-02-28T09:50:38.037Z,62.90
2019-02-28T09:53:06.427Z,49.97
2019-02-28T09:55:35.564Z,51.13
2019-02-28T09:58:04.157Z,58.17
2019-02-28T10:00:32.676Z,53.13
2019-02-28T10:03:01.076Z,53.13
2019-02-28T10:05:29.514Z,40.97
2019-02-28T10:08:01.497Z,53.20
2019-02-28T10:10:29.588Z,39.83
2019-02-28T10:12:58.057Z,42.93
2019-02-28T10:15:26.497Z,59.97
2019-02-28T10:17:54.891Z,39.10
2019-02-28T10:20:28.246Z,43.70
2019-02-28T10:22:56.632Z,48.40
2019-02-28T10:25:25.097Z,36.43
2019-02-28T10:27:54.606Z,50.83
2019-02-28T10:30:31.569Z,43.13
2019-02-28T10:32:57.164Z,56.07
2019-02-28T10:35:25.543Z,56.73
2019-02-28T10:37:57.408Z,32.40
2019-02-28T10:40:27.540Z,57.30
2019-02-28T10:42:55.928Z,65.37
2019-02-28T10:45:25.064Z,73.07
2019-02-28T10:47:53.444Z,62.60
2019-02-28T10:50:32.528Z,48.90
2019-02-28T10:53:04.067Z,53.60
2019-02-28T10:55:29.408Z,54.83
2019-02-28T10:57:57.811Z,41.50
2019-02-28T11:00:32.853Z,55.67
2019-02-28T11:03:02.166Z,39.73
2019-02-28T11:05:32.388Z,39.37
2019-02-28T11:08:01.920Z,48.77
2019-02-28T11:10:36.635Z,54.20
2019-02-28T11:13:07.166Z,39.47
2019-02-28T11:15:35.790Z,33.53
2019-02-28T11:18:08.593Z,46.80
2019-02-28T11:20:34.664Z,48.37
2019-02-28T11:23:03.579Z,44.93
2019-02-28T11:25:34.744Z,41.80
2019-02-28T11:28:02.408Z,45.43
2019-02-28T11:30:32.047Z,38.43
2019-02-28T11:33:04.344Z,44.40
2019-02-28T11:35:30.992Z,48.67
2019-02-28T11:37:59.459Z,34.33
2019-02-28T11:40:30.939Z,46.57
2019-02-28T11:43:02.747Z,45.83
2019-02-28T11:45:36.931Z,56.33
2019-02-28T11:48:07.567Z,52.77
2019-02-28T11:50:41.362Z,52.00
2019-02-28T11:53:06.163Z,37.37
2019-02-28T11:55:34.559Z,36.47
2019-02-28T11:58:02.944Z,47.47
2019-02-28T12:00:35.846Z,40.47
2019-02-28T12:03:05.621Z,39.60
2019-02-28T12:05:34.263Z,48.77
2019-02-28T12:08:02.665Z,53.70
2019-02-28T12:10:31.125Z,37.33
2019-02-28T12:12:59.519Z,52.73
2019-02-28T12:15:30.612Z,41.70
2019-02-28T12:18:03.635Z,56.87
2019-02-28T12:20:29.116Z,43.73
2019-02-28T12:22:57.516Z,67.07
2019-02-28T12:25:26.307Z,59.37
2019-02-28T12:27:55.283Z,53.60
2019-02-28T12:30:29.431Z,61.87
2019-02-28T12:32:57.832Z,48.20
2019-02-28T12:35:26.248Z,71.47
2019-02-28T12:37:55.040Z,50.43
2019-02-28T12:40:31.816Z,57.97
2019-02-28T12:43:00.200Z,48.07
2019-02-28T12:45:31.308Z,61.63
2019-02-28T12:47:59.697Z,71.23
2019-02-28T12:50:29.445Z,65.67
2019-02-28T12:52:58.340Z,51.03
2019-02-28T12:55:26.735Z,48.10
2019-02-28T12:57:57.737Z,46.17
2019-02-28T13:00:28.311Z,40.33
2019-02-28T13:02:56.698Z,42.27
2019-02-28T13:05:25.145Z,47.47
2019-02-28T13:07:53.681Z,46.50
2019-02-28T13:10:26.867Z,59.83
2019-02-28T13:12:53.275Z,56.70
2019-02-28T13:15:22.439Z,50.10
2019-02-28T13:17:50.803Z,36.17
2019-02-28T13:20:34.179Z,43.23
2019-02-28T13:23:03.271Z,40.40
2019-02-28T13:25:31.732Z,43.50
2019-02-28T13:28:00.110Z,32.97
2019-02-28T13:30:28.952Z,28.23
2019-02-28T13:32:57.345Z,38.43
2019-02-28T13:35:28.437Z,27.97
2019-02-28T13:37:56.891Z,27.07
2019-02-28T13:40:25.279Z,27.53
2019-02-28T13:42:53.679Z,18.27
2019-02-28T13:45:23.823Z,26.07
2019-02-28T13:47:52.438Z,15.13
2019-02-28T13:50:32.801Z,19.17
2019-02-28T13:53:03.623Z,17.33
2019-02-28T13:55:31.580Z,22.23
2019-02-28T13:58:00.147Z,21.23
2019-02-28T14:00:30.734Z,19.77
2019-02-28T14:03:10.654Z,21.37
2019-02-28T14:05:41.455Z,19.90
2019-02-28T14:08:11.297Z,34.20
2019-02-28T14:10:39.670Z,24.87
2019-02-28T14:13:08.137Z,21.60
2019-02-28T14:15:42.215Z,23.10
2019-02-28T14:18:11.636Z,17.67
2019-02-28T14:20:40.141Z,24.10
2019-02-28T14:23:08.697Z,14.83
2019-02-28T14:25:39.708Z,29.87
2019-02-28T14:28:07.189Z,15.93
2019-02-28T14:30:35.586Z,23.23
2019-02-28T14:33:04.236Z,17.70
2019-02-28T14:35:35.474Z,11.07
2019-02-28T14:38:02.812Z,14.77
2019-02-28T14:40:31.197Z,20.90
2019-02-28T14:42:59.656Z,19.13
2019-02-28T14:45:43.912Z,21.97
2019-02-28T14:48:12.542Z,19.30
2019-02-28T14:50:40.918Z,16.70
2019-02-28T14:53:13.335Z,17.00
2019-02-28T14:55:39.421Z,16.00
2019-02-28T14:58:07.801Z,20.40
2019-02-28T15:00:38.970Z,20.90
2019-02-28T15:03:06.443Z,17.77
2019-02-28T15:05:39.700Z,11.87
2019-02-28T15:08:08.081Z,12.40
2019-02-28T15:10:36.538Z,17.43
2019-02-28T15:13:05.383Z,13.07
2019-02-28T15:15:36.112Z,11.87
2019-02-28T15:18:04.709Z,12.10
2019-02-28T15:20:33.372Z,13.93
2019-02-28T15:23:01.865Z,14.63
2019-02-28T15:25:30.786Z,17.27
2019-02-28T15:27:59.167Z,9.50
2019-02-28T15:30:34.843Z,14.23
2019-02-28T15:33:03.431Z,14.10
2019-02-28T15:35:31.808Z,10.43
2019-02-28T15:38:00.189Z,19.70
2019-02-28T15:40:33.914Z,7.63
2019-02-28T15:43:02.312Z,10.37
2019-02-28T15:45:30.685Z,5.53
2019-02-28T15:48:00.388Z,8.40
2019-02-28T15:50:28.996Z,18.83
2019-02-28T15:52:57.932Z,11.17
2019-02-28T15:55:26.648Z,9.03
2019-02-28T15:57:55.039Z,15.33
2019-02-28T16:00:28.731Z,20.40
2019-02-28T16:02:57.235Z,14.67
2019-02-28T16:05:25.767Z,6.27
2019-02-28T16:07:55.637Z,13.73
2019-02-28T16:10:31.839Z,13.40
2019-02-28T16:13:00.116Z,17.90
2019-02-28T16:15:28.573Z,12.00
2019-02-28T16:17:56.982Z,16.77
2019-02-28T16:20:28.533Z,12.47
2019-02-28T16:22:55.540Z,11.60
2019-02-28T16:25:32.036Z,7.77
2019-02-28T16:28:00.583Z,8.50
2019-02-28T16:30:32.107Z,8.37
2019-02-28T16:32:59.145Z,16.70
2019-02-28T16:35:28.936Z,15.83
2019-02-28T16:37:57.612Z,15.30
2019-02-28T16:40:28.313Z,11.70
2019-02-28T16:42:56.703Z,20.63
2019-02-28T16:45:43.271Z,24.23
2019-02-28T16:48:11.655Z,14.00
2019-02-28T16:50:40.037Z,19.93
2019-02-28T16:53:14.776Z,14.90
2019-02-28T16:55:38.599Z,20.63
2019-02-28T16:58:06.995Z,19.53
2019-02-28T17:00:35.384Z,18.33
2019-02-28T17:03:07.402Z,19.47
2019-02-28T17:05:34.672Z,25.63
2019-02-28T17:08:03.120Z,14.43
2019-02-28T17:10:33.052Z,19.03
2019-02-28T17:13:12.267Z,17.53
2019-02-28T17:15:45.262Z,21.20
2019-02-28T17:18:18.527Z,13.20
2019-02-28T17:20:48.435Z,15.17
2019-02-28T17:23:18.599Z,14.07
2019-02-28T17:25:46.945Z,12.33
2019-02-28T17:28:16.977Z,6.87
2019-02-28T17:31:12.587Z,10.43
2019-02-28T17:33:43.440Z,12.13
2019-02-28T17:36:12.494Z,16.53
2019-02-28T17:38:41.107Z,16.87
2019-02-28T17:41:11.120Z,17.57
2019-02-28T17:43:40.028Z,14.50
2019-02-28T17:46:11.727Z,12.50
2019-02-28T17:49:05.720Z,7.70
2019-02-28T17:51:37.208Z,17.27
2019-02-28T17:54:21.047Z,9.93
2019-02-28T17:56:53.449Z,10.27
2019-02-28T17:59:42.070Z,8.73
2019-02-28T18:02:48.700Z,14.70
2019-02-28T18:05:33.773Z,8.27
2019-02-28T18:08:04.603Z,8.30
2019-02-28T18:11:11.125Z,14.10
2019-02-28T18:13:52.168Z,20.37
2019-02-28T18:16:39.824Z,9.13
2019-02-28T18:19:47.848Z,12.20
2019-02-28T18:22:19.480Z,19.27
2019-02-28T18:24:57.112Z,8.23
2019-02-28T18:27:43.715Z,15.83
2019-02-28T18:30:42.728Z,14.40
2019-02-28T18:33:11.202Z,11.33
2019-02-28T18:35:39.583Z,20.70
2019-02-28T18:38:07.984Z,16.57
2019-02-28T18:40:36.361Z,21.10
2019-02-28T18:43:04.889Z,20.93
2019-02-28T18:45:33.276Z,22.70
2019-02-28T18:48:01.671Z,23.43
2019-02-28T18:50:30.056Z,20.83
2019-02-28T18:52:58.439Z,23.10
2019-02-28T18:55:34.665Z,17.67
2019-02-28T18:57:56.952Z,17.23
2019-02-28T19:00:25.335Z,21.40
2019-02-28T19:02:53.728Z,22.40
2019-02-28T19:05:22.120Z,21.83
2019-02-28T19:07:50.518Z,11.80
2019-02-28T19:10:18.935Z,11.77
2019-02-28T19:12:47.373Z,11.07
2019-02-28T19:15:16.760Z,12.20
2019-02-28T19:17:45.137Z,12.33
2019-02-28T19:20:13.599Z,19.80
2019-02-28T19:22:42.041Z,11.97
2019-02-28T19:25:11.785Z,17.23
2019-02-28T19:27:40.168Z,21.17
2019-02-28T19:30:14.012Z,15.07
2019-02-28T19:32:42.456Z,17.47
2019-02-28T19:35:10.972Z,18.50
2019-02-28T19:37:39.359Z,19.70
2019-02-28T19:40:12.637Z,15.47
2019-02-28T19:42:41.032Z,14.10
2019-02-28T19:45:12.730Z,16.43
2019-02-28T19:47:41.167Z,15.13
2019-02-28T19:50:11.100Z,22.73
2019-02-28T19:52:39.476Z,18.67
2019-02-28T19:55:15.533Z,24.00
2019-02-28T19:57:43.903Z,24.17
2019-02-28T20:00:17.416Z,33.13
2019-02-28T20:02:45.796Z,22.67
2019-02-28T20:05:14.228Z,29.53
2019-02-28T20:07:42.795Z,29.27
2019-02-28T20:10:16.403Z,32.10
2019-02-28T20:12:44.856Z,21.93
2019-02-28T20:15:15.173Z,30.77
2019-02-28T20:17:43.632Z,21.80
2019-02-28T20:20:14.328Z,30.30
2019-02-28T20:22:42.729Z,13.53
2019-02-28T20:25:13.057Z,10.40
2019-02-28T20:27:41.449Z,26.20
2019-02-28T20:30:20.667Z,16.80
2019-02-28T20:32:49.144Z,15.30
2019-02-28T20:35:26.234Z,21.43
2019-02-28T20:37:47.699Z,20.73
2019-02-28T20:40:21.934Z,24.10
2019-02-28T20:42:50.304Z,31.67
2019-02-28T20:45:18.686Z,28.10
2019-02-28T20:47:47.096Z,24.83
2019-02-28T20:50:21.364Z,16.70
2019-02-28T20:52:49.743Z,19.43
2019-02-28T20:55:18.132Z,17.13
2019-02-28T20:57:46.538Z,20.23
2019-02-28T21:00:18.418Z,22.03
2019-02-28T21:02:46.797Z,23.00
2019-02-28T21:05:15.256Z,33.43
2019-02-28T21:07:43.704Z,25.67
2019-02-28T21:10:12.160Z,20.83
2019-02-28T21:12:40.621Z,27.30
2019-02-28T21:15:12.549Z,21.47
2019-02-28T21:17:40.937Z,20.83
2019-02-28T21:20:12.342Z,26.40
2019-02-28T21:22:40.831Z,19.97
2019-02-28T21:25:11.619Z,27.23
2019-02-28T21:27:59.348Z,21.23
2019-02-28T21:30:28.095Z,12.37
2019-02-28T21:32:56.472Z,21.20
2019-02-28T21:35:25.599Z,25.33
2019-02-28T21:37:53.992Z,18.03
2019-02-28T21:40:23.236Z,13.07
2019-02-28T21:42:51.623Z,13.63
2019-02-28T21:45:26.873Z,18.60
2019-02-28T21:47:55.251Z,19.73
2019-02-28T21:50:24.071Z,7.47
2019-02-28T21:52:52.460Z,10.03
2019-02-28T21:55:20.900Z,17.47
2019-02-28T21:57:49.284Z,19.17
2019-02-28T22:00:26.576Z,13.63
2019-02-28T22:02:54.959Z,7.93
2019-02-28T22:05:23.336Z,12.67
2019-02-28T22:07:51.707Z,14.20
2019-02-28T22:10:20.103Z,6.40
2019-02-28T22:12:48.465Z,10.27
2019-02-28T22:15:19.924Z,9.23
2019-02-28T22:17:48.367Z,14.67
2019-02-28T22:20:16.897Z,13.90
2019-02-28T22:23:04.624Z,13.67
2019-02-28T22:25:32.979Z,8.47
2019-02-28T22:28:01.363Z,11.30
2019-02-28T22:30:43.063Z,9.63
2019-02-28T22:33:29.796Z,17.20
2019-02-28T22:36:08.988Z,11.97
2019-02-28T22:38:37.365Z,8.00
2019-02-28T22:41:05.747Z,10.00
2019-02-28T22:43:34.126Z,11.03
2019-02-28T22:46:02.508Z,9.10
2019-02-28T22:48:30.888Z,14.03
2019-02-28T22:50:59.268Z,6.10
2019-02-28T22:53:27.670Z,11.47
2019-02-28T22:55:56.044Z,10.70
2019-02-28T22:58:24.436Z,14.93
2019-02-28T23:01:00.662Z,6.47
2019-02-28T23:03:31.347Z,12.37
2019-02-28T23:05:59.723Z,9.27
2019-02-28T23:08:28.116Z,10.23
2019-02-28T23:10:56.799Z,12.07
2019-02-28T23:13:25.251Z,15.77
2019-02-28T23:15:53.631Z,3.60
2019-02-28T23:18:22.158Z,13.03
2019-02-28T23:20:50.608Z,18.63
2019-02-28T23:23:19.004Z,13.83
2019-02-28T23:25:47.392Z,12.03
2019-02-28T23:28:30.932Z,11.20
2019-02-28T23:31:19.101Z,15.50
2019-02-28T23:33:47.477Z,12.50
2019-02-28T23:36:15.847Z,8.97
2019-02-28T23:38:44.229Z,7.13
2019-02-28T23:41:12.616Z,12.50
2019-02-28T23:43:40.980Z,15.97
2019-02-28T23:46:09.372Z,18.43
2019-02-28T23:48:37.752Z,7.37
2019-02-28T23:51:18.313Z,11.70
2019-02-28T23:53:46.683Z,15.23
2019-02-28T23:56:15.067Z,11.07
2019-02-28T23:58:43.448Z,13.00
